메인 페이지
METAR-TAF:

METAR-TAF

공항 :

Visalia Municipal Airport

Visalia, 캘리포니아, 미국

위도: 36-19N, 경도: 119-24W, 고도: 89m

현재 날씨관측

예보는 29분 전, 20:56시(UTC)에 발표되었습니다.
남서5kt
온도 34°C
습도 23%
기압 1012 hPa
시정: 16.1km
맑음

METAR: KVIS 132056Z AUTO 22005KT 10SM CLR 34/10 A2987 RMK AO2 SLP112 T03390100 58009

시각: 14:25 (21:25 UTC)

예보

예보는 4 시간 5분 전, 17:20시(UTC)에 발표되었습니다.
예보 대상 시간: 13일 18시부터 14일 18시까지 (UTC)
여러 방향의 바람 5kt
시정: 10km
맑음

TAF: KVIS 131720Z 1318/1418 VRB05KT P6SM SKC

4,000개 이상의 공항 관측 자료 및 예보 (METAR 및 TAF 보고).

지도상에서 검색 가능한 기상관측소가 노란 점과 빨간 점으로 표시되어 있습니다.

기상관측소 명을 보려면 표시 위로 마우스를 이동하세요.

날씨 관측과 예보를 보려면 클릭하세요.

지도 변경 : 확대하려면 엑스 표시가 있는 녹색 버튼, 축소하려면 빼기 표시가 있는 녹색 버튼, 다음 페이지의 지도를 보려면 녹색 화살표를 클릭하세요.


METAR-TAF: